createdAt,value
2017-11-14T00:00:32.272Z,19.87
2017-11-14T00:03:05.321Z,22.08
2017-11-14T00:05:39.551Z,20.75
2017-11-14T00:08:17.427Z,14.68
2017-11-14T00:10:56.008Z,15.05
2017-11-14T00:13:34.804Z,21.42
2017-11-14T00:16:14.040Z,17.25
2017-11-14T00:18:55.142Z,12.05
2017-11-14T00:21:35.621Z,28.35
2017-11-14T00:24:13.912Z,23.52
2017-11-14T00:26:52.654Z,19.15
2017-11-14T00:29:30.444Z,21.73
2017-11-14T00:32:10.665Z,28.70
2017-11-14T00:34:48.007Z,17.30
2017-11-14T00:37:28.790Z,26.12
2017-11-14T00:40:02.410Z,27.25
2017-11-14T00:42:40.418Z,22.00
2017-11-14T00:45:20.440Z,24.27
2017-11-14T00:47:54.660Z,28.65
2017-11-14T00:50:32.618Z,24.50
2017-11-14T00:53:14.902Z,22.27
2017-11-14T00:55:53.261Z,27.50
2017-11-14T00:58:32.409Z,28.02
2017-11-14T01:01:05.992Z,26.00
2017-11-14T01:03:39.393Z,22.45
2017-11-14T01:06:18.581Z,34.28
2017-11-14T01:08:58.243Z,32.10
2017-11-14T01:11:36.110Z,25.40
2017-11-14T01:14:08.632Z,29.27
2017-11-14T01:16:41.401Z,38.05
2017-11-14T01:19:16.569Z,21.58
2017-11-14T01:21:58.465Z,24.58
2017-11-14T01:24:37.726Z,26.40
2017-11-14T01:27:16.580Z,34.78
2017-11-14T01:29:53.210Z,26.05
2017-11-14T01:32:30.822Z,25.95
2017-11-14T01:35:08.117Z,26.00
2017-11-14T01:37:45.412Z,26.23
2017-11-14T01:40:22.966Z,29.05
2017-11-14T01:43:03.781Z,24.85
2017-11-14T01:45:43.304Z,28.95
2017-11-14T01:48:24.740Z,33.00
2017-11-14T01:51:05.333Z,25.77
2017-11-14T01:53:45.396Z,21.08
2017-11-14T01:56:29.308Z,37.03
2017-11-14T01:59:07.662Z,31.10
2017-11-14T02:01:47.916Z,33.05
2017-11-14T02:04:28.921Z,32.30
2017-11-14T02:07:06.465Z,31.37
2017-11-14T02:09:44.396Z,25.95
2017-11-14T02:12:24.397Z,36.05
2017-11-14T02:15:04.391Z,52.60
2017-11-14T02:17:45.308Z,38.15
2017-11-14T02:20:24.726Z,33.78
2017-11-14T02:23:06.947Z,43.10
2017-11-14T02:25:45.786Z,37.20
2017-11-14T02:28:21.031Z,33.20
2017-11-14T02:31:03.211Z,28.92
2017-11-14T02:33:42.515Z,29.20
2017-11-14T02:36:21.130Z,38.40
2017-11-14T02:38:59.358Z,33.22
2017-11-14T02:41:32.153Z,37.33
2017-11-14T02:44:10.658Z,43.92
2017-11-14T02:46:47.928Z,36.50
2017-11-14T02:49:27.166Z,37.67
2017-11-14T02:52:04.041Z,39.47
2017-11-14T02:54:41.946Z,39.88
2017-11-14T02:57:20.042Z,46.28
2017-11-14T03:00:00.234Z,36.40
2017-11-14T03:02:38.389Z,51.10
2017-11-14T03:05:13.938Z,51.80
2017-11-14T03:07:53.948Z,43.67
2017-11-14T03:10:32.912Z,35.63
2017-11-14T03:13:11.686Z,40.15
2017-11-14T03:15:49.057Z,33.65
2017-11-14T03:18:21.255Z,28.75
2017-11-14T03:21:01.527Z,33.00
2017-11-14T03:23:39.562Z,34.60
2017-11-14T03:26:16.993Z,37.13
2017-11-14T03:28:55.866Z,42.90
2017-11-14T03:31:35.326Z,34.10
2017-11-14T03:34:12.618Z,40.60
2017-11-14T03:36:50.402Z,35.53
2017-11-14T03:39:30.089Z,36.42
2017-11-14T03:42:09.368Z,29.67
2017-11-14T03:44:48.579Z,27.77
2017-11-14T03:47:29.714Z,28.38
2017-11-14T03:50:07.040Z,34.50
2017-11-14T03:52:47.464Z,31.83
2017-11-14T03:55:26.979Z,30.88
2017-11-14T03:58:05.985Z,32.75
2017-11-14T04:00:44.794Z,43.40
2017-11-14T04:03:24.360Z,39.90
2017-11-14T04:06:04.418Z,24.27
2017-11-14T04:08:43.656Z,27.33
2017-11-14T04:11:21.221Z,38.70
2017-11-14T04:14:00.155Z,41.55
2017-11-14T04:16:37.746Z,39.08
2017-11-14T04:19:15.746Z,44.33
2017-11-14T04:21:54.139Z,32.58
2017-11-14T04:24:34.210Z,40.10
2017-11-14T04:27:13.322Z,35.53
2017-11-14T04:29:52.398Z,38.33
2017-11-14T04:32:29.259Z,40.97
2017-11-14T04:35:08.875Z,38.05
2017-11-14T04:37:47.344Z,39.70
2017-11-14T04:40:24.687Z,41.10
2017-11-14T04:43:02.679Z,37.78
2017-11-14T04:45:42.305Z,39.55
2017-11-14T04:48:21.859Z,34.95
2017-11-14T04:51:04.703Z,37.65
2017-11-14T04:53:38.162Z,36.42
2017-11-14T04:56:16.191Z,44.28
2017-11-14T04:58:55.406Z,39.80
2017-11-14T05:01:37.701Z,41.30
2017-11-14T05:04:14.884Z,35.35
2017-11-14T05:06:55.068Z,34.97
2017-11-14T05:09:28.758Z,34.90
2017-11-14T05:12:08.132Z,39.03
2017-11-14T05:14:47.410Z,32.00
2017-11-14T05:17:20.605Z,41.17
2017-11-14T05:19:59.565Z,31.20
2017-11-14T05:22:37.194Z,34.22
2017-11-14T05:25:14.618Z,43.95
2017-11-14T05:27:53.715Z,39.75
2017-11-14T05:30:33.015Z,39.55
2017-11-14T05:33:13.248Z,44.13
2017-11-14T05:35:52.783Z,47.28
2017-11-14T05:38:31.732Z,34.72
2017-11-14T05:41:09.996Z,32.22
2017-11-14T05:43:44.058Z,29.48
2017-11-14T05:46:22.338Z,50.88
2017-11-14T05:49:05.640Z,44.05
2017-11-14T05:51:44.969Z,38.60
2017-11-14T05:54:25.089Z,37.22
2017-11-14T05:56:59.379Z,35.78
2017-11-14T05:59:39.206Z,39.92
2017-11-14T06:02:16.711Z,26.95
2017-11-14T06:04:55.054Z,44.33
2017-11-14T06:07:33.898Z,37.25
2017-11-14T06:10:11.855Z,36.22
2017-11-14T06:12:51.692Z,29.48
2017-11-14T06:15:31.340Z,30.33
2017-11-14T06:18:04.224Z,34.38
2017-11-14T06:20:43.964Z,35.67
2017-11-14T06:23:23.095Z,45.97
2017-11-14T06:26:06.615Z,33.75
2017-11-14T06:28:48.329Z,39.35
2017-11-14T06:31:29.465Z,41.60
2017-11-14T06:34:07.948Z,39.78
2017-11-14T06:36:46.685Z,34.75
2017-11-14T06:39:28.118Z,30.48
2017-11-14T06:42:14.316Z,43.87
2017-11-14T06:44:55.500Z,28.75
2017-11-14T06:47:36.053Z,33.63
2017-11-14T06:50:15.972Z,32.75
2017-11-14T06:52:48.805Z,33.88
2017-11-14T06:55:28.934Z,40.58
2017-11-14T06:58:05.396Z,38.05
2017-11-14T07:00:38.353Z,36.60
2017-11-14T07:03:17.320Z,38.08
2017-11-14T07:05:58.186Z,42.95
2017-11-14T07:08:27.335Z,41.25
2017-11-14T07:11:07.902Z,38.40
2017-11-14T07:13:46.668Z,43.47
2017-11-14T07:16:25.959Z,29.40
2017-11-14T07:19:05.020Z,46.92
2017-11-14T07:21:43.011Z,37.33
2017-11-14T07:24:21.991Z,33.97
2017-11-14T07:27:03.328Z,32.60
2017-11-14T07:29:43.378Z,40.65
2017-11-14T07:32:23.592Z,25.58
2017-11-14T07:35:03.642Z,34.33
2017-11-14T07:37:39.347Z,42.38
2017-11-14T07:40:20.617Z,30.27
2017-11-14T07:42:58.108Z,37.17
2017-11-14T07:45:36.756Z,32.75
2017-11-14T07:48:22.939Z,35.03
2017-11-14T07:51:01.541Z,44.60
2017-11-14T07:53:44.822Z,33.00
2017-11-14T07:56:25.386Z,29.17
2017-11-14T07:59:04.271Z,33.13
2017-11-14T08:01:46.002Z,34.30
2017-11-14T08:04:28.702Z,35.00
2017-11-14T08:07:10.650Z,28.80
2017-11-14T08:09:44.363Z,33.40
2017-11-14T08:12:22.442Z,27.95
2017-11-14T08:15:04.717Z,28.77
2017-11-14T08:17:45.982Z,30.67
2017-11-14T08:20:25.445Z,28.67
2017-11-14T08:23:06.803Z,24.98
2017-11-14T08:25:40.395Z,25.92
2017-11-14T08:28:22.081Z,30.23
2017-11-14T08:31:01.294Z,19.33
2017-11-14T08:33:39.369Z,22.27
2017-11-14T08:36:17.214Z,30.17
2017-11-14T08:38:54.235Z,23.52
2017-11-14T08:41:33.501Z,23.42
2017-11-14T08:44:12.429Z,26.73
2017-11-14T08:46:52.734Z,25.77
2017-11-14T08:49:35.978Z,25.88
2017-11-14T08:52:18.562Z,24.87
2017-11-14T08:55:02.744Z,23.60
2017-11-14T08:57:46.243Z,21.48
2017-11-14T09:00:27.231Z,32.00
2017-11-14T09:03:10.341Z,30.40
2017-11-14T09:05:40.542Z,30.55
2017-11-14T09:08:22.486Z,25.70
2017-11-14T09:11:03.386Z,18.40
2017-11-14T09:13:41.132Z,22.62
2017-11-14T09:16:26.048Z,22.35
2017-11-14T09:21:49.498Z,28.80
2017-11-14T09:24:32.818Z,28.87
2017-11-14T09:27:10.990Z,27.00
2017-11-14T09:29:54.124Z,31.62
2017-11-14T09:32:39.775Z,24.52
2017-11-14T09:35:22.902Z,26.23
2017-11-14T09:38:02.517Z,25.83
2017-11-14T09:40:41.537Z,25.05
2017-11-14T09:43:20.517Z,28.20
2017-11-14T09:45:59.929Z,22.33
2017-11-14T09:48:44.618Z,21.27
2017-11-14T09:51:29.723Z,23.77
2017-11-14T09:54:03.701Z,21.83
2017-11-14T09:56:41.994Z,28.10
2017-11-14T09:59:23.822Z,21.25
2017-11-14T10:02:04.400Z,21.02
2017-11-14T10:04:49.032Z,23.38
2017-11-14T10:07:28.080Z,26.00
2017-11-14T10:10:16.180Z,29.58
2017-11-14T10:12:53.212Z,21.08
2017-11-14T10:15:30.185Z,24.73
2017-11-14T10:18:10.110Z,25.20
2017-11-14T10:20:50.720Z,29.12
2017-11-14T10:23:30.130Z,22.13
2017-11-14T10:26:06.951Z,27.30
2017-11-14T10:28:45.271Z,26.80
2017-11-14T10:31:28.630Z,27.77
2017-11-14T10:34:09.604Z,27.40
2017-11-14T10:36:50.676Z,27.00
2017-11-14T10:39:33.524Z,21.70
2017-11-14T10:42:17.688Z,28.55
2017-11-14T10:45:00.583Z,27.45
2017-11-14T10:47:40.202Z,29.25
2017-11-14T10:50:17.812Z,19.77
2017-11-14T10:53:01.919Z,25.95
2017-11-14T10:55:39.644Z,23.02
2017-11-14T10:58:17.380Z,20.02
2017-11-14T11:01:01.332Z,19.70
2017-11-14T11:03:35.959Z,20.08
2017-11-14T11:06:20.480Z,27.27
2017-11-14T11:08:59.956Z,18.20
2017-11-14T11:11:41.153Z,20.67
2017-11-14T11:14:19.153Z,27.50
2017-11-14T11:16:58.582Z,23.67
2017-11-14T11:19:36.060Z,29.65
2017-11-14T11:22:15.348Z,18.83
2017-11-14T11:24:56.441Z,20.75
2017-11-14T11:27:32.008Z,26.58
2017-11-14T11:30:11.030Z,32.13
2017-11-14T11:32:56.096Z,22.27
2017-11-14T11:35:41.964Z,20.35
2017-11-14T11:38:25.815Z,20.95
2017-11-14T11:41:06.582Z,19.25
2017-11-14T11:43:48.680Z,25.12
2017-11-14T11:46:28.219Z,23.90
2017-11-14T11:49:12.327Z,19.70
2017-11-14T11:51:56.243Z,17.58
2017-11-14T11:54:40.354Z,18.98
2017-11-14T11:57:22.820Z,21.52
2017-11-14T12:00:00.505Z,29.27
2017-11-14T12:02:33.934Z,25.75
2017-11-14T12:05:16.442Z,24.75
2017-11-14T12:07:56.084Z,25.98
2017-11-14T12:10:39.986Z,25.98
2017-11-14T12:13:22.483Z,21.10
2017-11-14T12:16:05.890Z,15.27
2017-11-14T12:18:47.618Z,18.80
2017-11-14T12:21:28.681Z,17.65
2017-11-14T12:24:09.897Z,24.55
2017-11-14T12:26:45.277Z,21.37
2017-11-14T12:29:18.572Z,24.55
2017-11-14T12:32:01.071Z,21.42
2017-11-14T12:34:40.443Z,22.15
2017-11-14T12:37:21.221Z,22.13
2017-11-14T12:40:00.172Z,28.73
2017-11-14T12:42:40.236Z,21.52
2017-11-14T12:45:20.342Z,20.70
2017-11-14T12:48:01.814Z,27.45
2017-11-14T12:50:35.584Z,20.50
2017-11-14T12:53:15.562Z,23.00
2017-11-14T12:55:54.406Z,23.85
2017-11-14T12:58:36.177Z,31.90
2017-11-14T13:01:15.204Z,17.48
2017-11-14T13:03:48.980Z,17.30
2017-11-14T13:06:28.926Z,22.67
2017-11-14T13:09:05.195Z,22.40
2017-11-14T13:11:38.677Z,20.88
2017-11-14T13:14:12.648Z,19.42
2017-11-14T13:16:51.406Z,18.77
2017-11-14T13:19:34.240Z,23.35
2017-11-14T13:22:11.027Z,22.55
2017-11-14T13:24:54.628Z,16.10
2017-11-14T13:27:32.083Z,20.40
2017-11-14T13:30:12.045Z,27.08
2017-11-14T13:32:55.921Z,19.92
2017-11-14T13:35:37.114Z,21.17
2017-11-14T13:38:16.167Z,21.92
2017-11-14T13:40:55.872Z,21.60
2017-11-14T13:43:35.776Z,16.83
2017-11-14T13:46:18.882Z,17.90
2017-11-14T13:48:57.836Z,21.85
2017-11-14T13:51:38.067Z,25.10
2017-11-14T13:54:12.508Z,14.02
2017-11-14T13:56:57.569Z,18.98
2017-11-14T13:59:37.772Z,19.67
2017-11-14T14:02:13.913Z,21.90
2017-11-14T14:04:55.887Z,31.70
2017-11-14T14:07:39.107Z,21.95
2017-11-14T14:10:14.165Z,22.02
2017-11-14T14:12:54.845Z,27.02
2017-11-14T14:15:34.688Z,16.45
2017-11-14T14:18:14.517Z,16.42
2017-11-14T14:20:55.361Z,19.48
2017-11-14T14:23:38.572Z,17.25
2017-11-14T14:26:11.548Z,17.60
2017-11-14T14:28:48.234Z,16.48
2017-11-14T14:31:22.081Z,18.02
2017-11-14T14:34:02.298Z,15.43
2017-11-14T14:36:41.642Z,19.65
2017-11-14T14:39:16.948Z,15.27
2017-11-14T14:41:58.121Z,22.45
2017-11-14T14:44:39.173Z,16.70
2017-11-14T14:47:13.548Z,14.50
2017-11-14T14:49:48.009Z,19.33
2017-11-14T14:52:27.039Z,16.00
2017-11-14T14:55:09.519Z,14.65
2017-11-14T14:57:47.790Z,16.80
2017-11-14T15:00:30.751Z,25.60
2017-11-14T15:03:09.444Z,19.42
2017-11-14T15:05:48.495Z,15.55
2017-11-14T15:08:29.045Z,23.48
2017-11-14T15:11:11.351Z,26.33
2017-11-14T15:13:44.856Z,14.75
2017-11-14T15:16:25.061Z,16.60
2017-11-14T15:19:04.015Z,17.35
2017-11-14T15:21:47.208Z,16.12
2017-11-14T15:24:28.542Z,28.55
2017-11-14T15:27:03.112Z,20.70
2017-11-14T15:29:41.031Z,21.95
2017-11-14T15:32:21.020Z,24.35
2017-11-14T15:34:55.199Z,21.92
2017-11-14T15:37:32.861Z,19.50
2017-11-14T15:40:12.522Z,17.30
2017-11-14T15:42:49.832Z,22.37
2017-11-14T15:45:24.861Z,25.25
2017-11-14T15:47:58.007Z,23.17
2017-11-14T15:50:38.585Z,14.75
2017-11-14T15:53:21.596Z,21.35
2017-11-14T15:56:05.288Z,22.73
2017-11-14T15:58:47.297Z,18.17
2017-11-14T16:01:20.324Z,19.15
2017-11-14T16:04:01.569Z,27.08
2017-11-14T16:06:34.336Z,14.93
2017-11-14T16:09:07.437Z,20.45
2017-11-14T16:11:47.060Z,14.93
2017-11-14T16:14:27.208Z,16.98
2017-11-14T16:17:09.338Z,24.58
2017-11-14T16:19:43.306Z,15.45
2017-11-14T16:22:24.983Z,19.70
2017-11-14T16:25:07.738Z,20.00
2017-11-14T16:27:47.095Z,17.83
2017-11-14T16:30:31.829Z,24.80
2017-11-14T16:33:05.659Z,19.55
2017-11-14T16:35:44.314Z,27.35
2017-11-14T16:38:23.210Z,24.80
2017-11-14T16:41:06.291Z,14.00
2017-11-14T16:43:41.138Z,20.80
2017-11-14T16:46:21.172Z,21.40
2017-11-14T16:49:00.350Z,22.15
2017-11-14T16:51:36.659Z,22.87
2017-11-14T16:54:12.321Z,20.37
2017-11-14T16:56:44.966Z,23.62
2017-11-14T16:59:23.571Z,21.27
2017-11-14T17:02:08.304Z,22.35
2017-11-14T17:04:47.173Z,24.12
2017-11-14T17:07:28.477Z,19.37
2017-11-14T17:10:08.140Z,25.20
2017-11-14T17:12:48.431Z,16.75
2017-11-14T17:15:22.235Z,19.62
2017-11-14T17:18:05.902Z,20.48
2017-11-14T17:20:44.398Z,20.10
2017-11-14T17:23:25.334Z,27.95
2017-11-14T17:25:54.924Z,33.75
2017-11-14T17:28:35.461Z,17.20
2017-11-14T17:31:13.986Z,29.25
2017-11-14T17:33:48.050Z,27.27
2017-11-14T17:36:22.012Z,22.42
2017-11-14T17:39:08.850Z,24.87
2017-11-14T17:41:46.917Z,16.30
2017-11-14T17:44:26.942Z,19.30
2017-11-14T17:47:06.898Z,20.65
2017-11-14T17:49:45.567Z,23.10
2017-11-14T17:52:25.258Z,19.15
2017-11-14T17:55:05.095Z,24.63
2017-11-14T17:57:44.774Z,16.80
2017-11-14T18:00:26.429Z,21.15
2017-11-14T18:03:03.073Z,50.33
2017-11-14T18:05:42.553Z,26.85
2017-11-14T18:08:20.497Z,24.17
2017-11-14T18:10:59.608Z,18.55
2017-11-14T18:13:39.341Z,27.62
2017-11-14T18:16:20.456Z,23.12
2017-11-14T18:18:59.011Z,27.08
2017-11-14T18:21:40.997Z,18.87
2017-11-14T18:24:21.644Z,17.85
2017-11-14T18:27:00.898Z,20.12
2017-11-14T18:29:40.830Z,18.12
2017-11-14T18:32:21.520Z,22.95
2017-11-14T18:35:00.070Z,17.37
2017-11-14T18:37:42.160Z,20.75
2017-11-14T18:40:25.560Z,29.37
2017-11-14T18:43:02.962Z,16.90
2017-11-14T18:45:40.463Z,17.40
2017-11-14T18:48:17.109Z,23.73
2017-11-14T18:50:58.544Z,27.87
2017-11-14T18:53:39.423Z,21.23
2017-11-14T18:56:12.804Z,24.55
2017-11-14T18:58:52.064Z,26.95
2017-11-14T19:01:26.773Z,28.00
2017-11-14T19:04:04.480Z,24.90
2017-11-14T19:06:43.534Z,22.27
2017-11-14T19:09:21.175Z,21.55
2017-11-14T19:11:57.273Z,27.20
2017-11-14T19:14:35.970Z,23.10
2017-11-14T19:17:14.803Z,22.17
2017-11-14T19:19:47.222Z,29.10
2017-11-14T19:22:20.398Z,33.67
2017-11-14T19:24:53.574Z,22.13
2017-11-14T19:27:32.371Z,20.85
2017-11-14T19:30:12.038Z,25.65
2017-11-14T19:32:46.254Z,20.98
2017-11-14T19:35:25.973Z,20.85
2017-11-14T19:37:59.259Z,21.95
2017-11-14T19:40:33.233Z,18.15
2017-11-14T19:43:05.911Z,27.15
2017-11-14T19:45:44.883Z,23.62
2017-11-14T19:48:17.477Z,23.50
2017-11-14T19:50:50.994Z,20.88
2017-11-14T19:53:28.723Z,23.33
2017-11-14T19:56:07.619Z,25.58
2017-11-14T19:58:47.211Z,20.08
2017-11-14T20:01:29.685Z,23.30
2017-11-14T20:04:03.196Z,26.40
2017-11-14T20:06:37.736Z,34.13
2017-11-14T20:09:11.833Z,22.15
2017-11-14T20:11:50.927Z,39.33
2017-11-14T20:14:28.165Z,20.48
2017-11-14T20:17:08.045Z,22.50
2017-11-14T20:19:49.238Z,23.35
2017-11-14T20:22:27.709Z,27.15
2017-11-14T20:25:07.676Z,19.20
2017-11-14T20:27:41.682Z,26.40
2017-11-14T20:30:19.754Z,18.45
2017-11-14T20:32:56.991Z,27.00
2017-11-14T20:35:35.630Z,25.42
2017-11-14T20:38:14.467Z,21.23
2017-11-14T20:40:53.332Z,21.95
2017-11-14T20:43:31.196Z,20.55
2017-11-14T20:46:10.060Z,19.92
2017-11-14T20:48:43.580Z,20.85
2017-11-14T20:51:21.331Z,25.05
2017-11-14T20:53:54.399Z,26.85
2017-11-14T20:56:28.019Z,24.37
2017-11-14T20:59:02.041Z,26.87
2017-11-14T21:01:41.451Z,27.95
2017-11-14T21:04:20.175Z,28.98
2017-11-14T21:06:58.885Z,36.58
2017-11-14T21:09:36.402Z,39.05
2017-11-14T21:12:15.031Z,33.47
2017-11-14T21:14:53.640Z,32.85
2017-11-14T21:17:32.353Z,35.55
2017-11-14T21:20:05.592Z,43.22
2017-11-14T21:22:45.977Z,38.25
2017-11-14T21:25:23.183Z,29.05
2017-11-14T21:28:01.150Z,33.28
2017-11-14T21:30:39.574Z,45.05
2017-11-14T21:33:17.151Z,52.60
2017-11-14T21:35:54.905Z,47.22
2017-11-14T21:38:27.560Z,41.60
2017-11-14T21:41:08.533Z,39.50
2017-11-14T21:43:45.634Z,42.55
2017-11-14T21:46:23.656Z,49.65
2017-11-14T21:49:01.631Z,52.33
2017-11-14T21:51:40.024Z,49.28
2017-11-14T21:54:18.332Z,47.20
2017-11-14T21:56:57.117Z,50.95
2017-11-14T21:59:37.321Z,53.60
2017-11-14T22:02:16.529Z,45.92
2017-11-14T22:04:55.494Z,42.70
2017-11-14T22:07:37.508Z,59.40
2017-11-14T22:10:07.027Z,50.12
2017-11-14T22:12:46.834Z,61.90
2017-11-14T22:15:23.852Z,51.42
2017-11-14T22:18:03.612Z,47.47
2017-11-14T22:20:41.611Z,41.75
2017-11-14T22:23:20.902Z,46.72
2017-11-14T22:25:55.597Z,48.87
2017-11-14T22:28:34.525Z,51.80
2017-11-14T22:31:13.084Z,50.25
2017-11-14T22:33:50.230Z,43.28
2017-11-14T22:36:28.810Z,47.08
2017-11-14T22:39:09.919Z,54.10
2017-11-14T22:41:43.981Z,45.30
2017-11-14T22:44:23.063Z,51.83
2017-11-14T22:47:01.437Z,46.40
2017-11-14T22:49:35.410Z,49.33
2017-11-14T22:52:12.850Z,54.78
2017-11-14T22:54:50.645Z,60.63
2017-11-14T22:57:27.569Z,47.67
2017-11-14T23:00:09.046Z,47.95
2017-11-14T23:02:46.480Z,51.58
2017-11-14T23:05:16.678Z,59.75
2017-11-14T23:07:55.556Z,49.13
2017-11-14T23:10:33.705Z,47.58
2017-11-14T23:13:14.179Z,59.40
2017-11-14T23:15:52.331Z,51.20
2017-11-14T23:18:31.459Z,56.10
2017-11-14T23:21:04.899Z,53.20
2017-11-14T23:23:41.504Z,51.78
2017-11-14T23:26:20.280Z,56.20
2017-11-14T23:29:00.555Z,53.47
2017-11-14T23:31:39.058Z,50.30
2017-11-14T23:34:17.090Z,63.87
2017-11-14T23:36:55.340Z,53.65
2017-11-14T23:39:32.140Z,58.13
2017-11-14T23:42:11.016Z,56.50
2017-11-14T23:44:50.955Z,49.65
2017-11-14T23:47:24.442Z,49.95
2017-11-14T23:50:01.236Z,57.85
2017-11-14T23:52:38.989Z,54.58
2017-11-14T23:55:15.958Z,56.50
2017-11-14T23:57:53.631Z,48.47
